Time;durP1;ratioP1;P1;durP2;ratioP2;P2;SDS_P1;SDS_P2;PMS_P1;PMS_P2;Temp;Humidity;BMP_temperature;BMP_pressure;BME280_temperature;BME280_humidity;BME280_pressure;Samples;Min_cycle;Max_cycle;Signal;HPM_P1;HPM_P2
2023/10/31 00:01:41;;;;;;;1.00;0.87;;;11.70;99.90;;;12.14;100.00;96484.84;5028668;28;20532;-80
2023/10/31 00:04:10;;;;;;;3.00;0.87;;;11.70;99.90;;;12.10;100.00;96487.13;5029312;28;20504;-80
2023/10/31 00:06:41;;;;;;;4.40;1.23;;;11.60;99.90;;;12.07;100.00;96474.50;5028184;28;20564;-80
2023/10/31 00:09:11;;;;;;;1.63;0.90;;;11.60;99.90;;;12.08;100.00;96477.91;5028776;28;20462;-80
2023/10/31 00:11:44;;;;;;;5.80;1.00;;;11.60;99.90;;;12.01;100.00;96485.09;5027094;28;20527;-80
2023/10/31 00:14:13;;;;;;;1.00;0.90;;;11.50;99.90;;;12.01;100.00;96472.81;5026228;28;20493;-80
2023/10/31 00:16:59;;;;;;;1.20;1.00;;;11.50;99.90;;;12.02;100.00;96463.13;5027409;28;20472;-80
2023/10/31 00:19:30;;;;;;;1.10;0.90;;;11.50;99.90;;;12.01;100.00;96461.53;5028795;28;20473;-80
2023/10/31 00:22:00;;;;;;;2.23;1.20;;;11.50;99.90;;;12.02;100.00;96456.06;5026801;28;20512;-80
2023/10/31 00:24:32;;;;;;;1.50;0.83;;;11.50;99.90;;;11.98;100.00;96457.56;5028461;28;20473;-80
2023/10/31 00:27:01;;;;;;;1.63;1.00;;;11.40;99.90;;;11.98;100.00;96462.00;5030413;28;20819;-80
2023/10/31 00:29:31;;;;;;;1.70;0.90;;;11.40;99.90;;;11.95;100.00;96475.56;5027658;28;21173;-80
2023/10/31 00:32:02;;;;;;;5.97;1.10;;;11.40;99.90;;;11.91;100.00;96479.69;5027549;28;20478;-80
2023/10/31 00:34:34;;;;;;;1.33;0.90;;;11.30;99.90;;;11.86;100.00;96488.25;5028460;28;20493;-79
2023/10/31 00:37:05;;;;;;;4.93;1.17;;;11.40;99.90;;;11.87;100.00;96494.28;5028883;28;20476;-80
2023/10/31 00:39:36;;;;;;;4.23;1.37;;;11.30;99.90;;;11.81;100.00;96496.00;5028078;28;20469;-79
2023/10/31 00:42:08;;;;;;;1.20;1.00;;;11.20;99.90;;;11.72;100.00;96489.56;5030823;28;20538;-80
2023/10/31 00:44:37;;;;;;;1.43;1.00;;;11.30;99.90;;;11.74;100.00;96497.16;5029667;28;20537;-81
2023/10/31 00:47:07;;;;;;;4.40;1.23;;;11.20;99.90;;;11.68;100.00;96487.59;5030989;28;20462;-80
2023/10/31 00:49:36;;;;;;;1.63;1.10;;;11.10;99.90;;;11.71;100.00;96493.19;5028383;28;20461;-80
2023/10/31 00:52:07;;;;;;;1.10;1.00;;;11.20;99.90;;;11.70;100.00;96494.19;5027477;28;21177;-80
2023/10/31 00:54:38;;;;;;;1.27;1.17;;;11.20;99.90;;;11.70;100.00;96496.78;5029439;28;20497;-80
2023/10/31 00:57:08;;;;;;;1.87;1.10;;;11.20;99.90;;;11.69;100.00;96499.66;5027466;28;20561;-82
2023/10/31 00:59:39;;;;;;;2.50;1.10;;;11.20;99.90;;;11.70;100.00;96488.94;5028884;28;21769;-80
2023/10/31 01:02:09;;;;;;;2.60;1.23;;;11.10;99.90;;;11.75;100.00;96490.91;5029002;28;20474;-80
2023/10/31 01:04:38;;;;;;;2.07;1.30;;;11.10;99.90;;;11.73;100.00;96492.97;5025643;28;20472;-79
2023/10/31 01:07:11;;;;;;;1.17;1.07;;;11.10;99.90;;;11.72;100.00;96496.63;5026738;28;20484;-80
2023/10/31 01:09:42;;;;;;;1.57;1.20;;;11.30;99.90;;;11.66;100.00;96492.28;5024882;28;20458;-80
2023/10/31 01:12:12;;;;;;;2.90;1.10;;;11.30;99.90;;;11.67;100.00;96491.22;5026304;28;20477;-80
2023/10/31 01:14:43;;;;;;;1.30;0.93;;;11.20;99.90;;;11.68;100.00;96495.44;5026752;28;20486;-80
2023/10/31 01:17:14;;;;;;;0.80;0.70;;;11.10;99.90;;;11.66;100.00;96494.91;5026892;28;20466;-81
2023/10/31 01:19:44;;;;;;;5.30;1.00;;;11.10;99.90;;;11.63;100.00;96503.97;5027375;28;20901;-80
2023/10/31 01:22:13;;;;;;;7.10;1.23;;;11.10;99.90;;;11.63;100.00;96498.75;5026275;28;20516;-81
2023/10/31 01:24:44;;;;;;;3.87;1.40;;;11.20;99.90;;;11.63;100.00;96497.97;5028076;28;20468;-80
2023/10/31 01:27:14;;;;;;;2.17;1.30;;;11.20;99.90;;;11.62;100.00;96502.41;5026924;28;20458;-80
2023/10/31 01:29:44;;;;;;;1.50;0.80;;;11.10;99.90;;;11.66;100.00;96505.38;5025869;28;20461;-80
2023/10/31 01:32:13;;;;;;;3.07;1.20;;;11.10;99.90;;;11.64;100.00;96505.59;5029524;28;20512;-80
2023/10/31 01:34:51;;;;;;;1.30;1.10;;;11.20;99.90;;;11.66;100.00;96505.38;5030484;28;20500;-80
2023/10/31 01:37:21;;;;;;;8.80;1.17;;;11.10;99.90;;;11.63;100.00;96504.78;5030148;28;21089;-80
2023/10/31 01:39:54;;;;;;;1.17;0.90;;;11.00;99.90;;;11.69;100.00;96507.53;5029732;28;20473;-80
2023/10/31 01:42:24;;;;;;;1.33;1.00;;;10.90;99.90;;;11.71;100.00;96510.72;5029786;28;20806;-80
2023/10/31 01:44:54;;;;;;;1.93;1.20;;;11.00;99.90;;;11.71;100.00;96508.09;5031679;28;20453;-80
2023/10/31 01:47:24;;;;;;;2.73;0.87;;;11.10;99.90;;;11.63;100.00;96507.41;5029443;28;20468;-80
2023/10/31 01:49:54;;;;;;;5.90;0.90;;;11.10;99.90;;;11.61;100.00;96499.00;5031604;28;20484;-80
2023/10/31 01:52:24;;;;;;;1.10;1.00;;;11.10;99.90;;;11.63;100.00;96504.78;5029663;28;20506;-80
2023/10/31 01:54:56;;;;;;;3.63;0.90;;;11.00;99.90;;;11.67;100.00;96501.69;5028890;28;20485;-80
2023/10/31 01:57:28;;;;;;;3.00;1.03;;;11.00;99.90;;;11.68;100.00;96495.44;5027995;28;20463;-80
2023/10/31 01:59:57;;;;;;;2.13;1.03;;;11.00;99.90;;;11.70;100.00;96502.03;5029991;28;21030;-80
2023/10/31 02:02:30;;;;;;;3.73;1.00;;;11.00;99.90;;;11.70;100.00;96509.13;5029694;28;20539;-80
2023/10/31 02:05:00;;;;;;;9.70;1.10;;;11.00;99.90;;;11.71;100.00;96500.25;5029498;28;20470;-80
2023/10/31 02:07:31;;;;;;;1.10;1.00;;;10.90;99.90;;;11.68;100.00;96496.25;5029085;28;20513;-80
2023/10/31 02:10:03;;;;;;;5.00;1.20;;;10.90;99.90;;;11.64;100.00;96492.50;5032153;28;21037;-79
2023/10/31 02:12:34;;;;;;;1.47;0.90;;;11.00;99.90;;;11.62;100.00;96494.56;5030469;28;20948;-80
2023/10/31 02:15:07;;;;;;;2.37;0.80;;;11.00;99.90;;;11.56;100.00;96495.47;5032101;28;20485;-80
2023/10/31 02:17:41;;;;;;;2.10;1.00;;;11.00;99.90;;;11.53;100.00;96503.78;5031668;28;20458;-80
2023/10/31 02:20:13;;;;;;;6.00;1.73;;;10.80;99.90;;;11.45;100.00;96502.31;5030349;28;20461;-79
2023/10/31 02:22:44;;;;;;;2.17;1.97;;;10.80;99.90;;;11.46;100.00;96506.53;5031271;28;20537;-80
2023/10/31 02:25:19;;;;;;;1.00;0.90;;;10.80;99.90;;;11.43;100.00;96507.00;5031223;28;20542;-79
2023/10/31 02:27:49;;;;;;;1.57;0.90;;;10.80;99.90;;;11.42;100.00;96512.47;5028558;28;20461;-80
2023/10/31 02:30:19;;;;;;;2.40;0.93;;;10.70;99.90;;;11.47;100.00;96510.75;5030885;28;20480;-80
2023/10/31 02:32:48;;;;;;;1.40;1.27;;;10.70;99.90;;;11.47;100.00;96515.97;5030192;28;20500;-80
2023/10/31 02:35:19;;;;;;;0.80;0.70;;;10.70;99.90;;;11.39;100.00;96518.16;5031401;28;20572;-80
2023/10/31 02:37:52;;;;;;;0.90;0.80;;;10.80;99.90;;;11.42;100.00;96522.94;5028894;28;20462;-79
2023/10/31 02:40:21;;;;;;;1.00;0.90;;;10.80;99.90;;;11.44;100.00;96521.69;5029545;28;20541;-80
2023/10/31 02:42:51;;;;;;;0.90;0.70;;;10.80;99.90;;;11.42;100.00;96526.34;5030331;28;20528;-80
2023/10/31 02:45:22;;;;;;;1.30;0.90;;;10.80;99.90;;;11.41;100.00;96526.56;5028278;28;20465;-79
2023/10/31 02:47:51;;;;;;;2.77;0.83;;;10.80;99.90;;;11.44;100.00;96526.91;5028514;28;20469;-80
2023/10/31 02:50:22;;;;;;;6.40;1.00;;;10.90;99.90;;;11.44;100.00;96533.97;5028495;28;20450;-81
2023/10/31 02:52:54;;;;;;;6.60;0.93;;;10.90;99.90;;;11.48;100.00;96543.75;5028920;28;20469;-80
2023/10/31 02:55:24;;;;;;;1.97;1.00;;;10.90;99.90;;;11.46;100.00;96548.41;5028598;28;20580;-80
2023/10/31 02:57:54;;;;;;;7.80;1.00;;;10.80;99.90;;;11.45;100.00;96543.41;5028998;28;20593;-80
2023/10/31 03:00:25;;;;;;;0.90;0.80;;;10.90;99.90;;;11.46;100.00;96551.03;5026728;28;20485;-80
2023/10/31 03:02:54;;;;;;;9.30;0.93;;;10.90;99.90;;;11.46;100.00;96556.25;5029024;28;20993;-80
2023/10/31 03:05:24;;;;;;;1.17;0.90;;;10.90;99.90;;;11.49;100.00;96553.19;5026984;28;20972;-80
2023/10/31 03:07:57;;;;;;;1.00;0.90;;;10.90;99.90;;;11.50;100.00;96561.84;5027900;28;20478;-80
2023/10/31 03:10:27;;;;;;;3.43;0.90;;;10.80;99.90;;;11.48;100.00;96551.63;5029307;28;20535;-80
2023/10/31 03:12:59;;;;;;;1.93;1.03;;;10.80;99.90;;;11.51;100.00;96559.00;5027307;28;20494;-80
2023/10/31 03:15:29;;;;;;;1.10;1.00;;;10.90;99.90;;;11.52;100.00;96557.97;5026951;28;20908;-80
2023/10/31 03:17:59;;;;;;;1.50;0.97;;;10.90;99.90;;;11.51;100.00;96564.25;5029606;28;20504;-80
2023/10/31 03:20:29;;;;;;;1.20;1.00;;;10.90;99.90;;;11.50;100.00;96567.88;5029820;28;20465;-80
2023/10/31 03:23:00;;;;;;;2.80;1.20;;;10.90;99.90;;;11.45;100.00;96559.91;5028708;28;20522;-81
2023/10/31 03:25:31;;;;;;;0.97;0.87;;;10.80;99.90;;;11.47;100.00;96557.06;5028522;28;20872;-80
2023/10/31 03:28:05;;;;;;;1.10;1.00;;;10.80;99.90;;;11.44;100.00;96558.31;5028779;28;20489;-80
2023/10/31 03:30:34;;;;;;;2.20;1.00;;;10.90;99.90;;;11.48;100.00;96564.69;5026839;28;20868;-79
2023/10/31 03:33:04;;;;;;;5.43;1.10;;;10.80;99.90;;;11.50;100.00;96567.88;5029349;28;20548;-79
2023/10/31 03:35:35;;;;;;;5.30;1.00;;;10.80;99.90;;;11.49;100.00;96560.22;5032180;28;20462;-80
2023/10/31 03:38:06;;;;;;;1.47;0.90;;;10.80;99.90;;;11.48;100.00;96564.69;5029230;28;20489;-80
2023/10/31 03:40:37;;;;;;;1.00;0.90;;;10.80;99.90;;;11.46;100.00;96568.56;5026845;28;20453;-80
2023/10/31 03:43:07;;;;;;;1.00;0.87;;;10.80;99.90;;;11.44;100.00;96570.63;5029166;28;20557;-80
2023/10/31 03:45:37;;;;;;;1.20;1.00;;;10.70;99.90;;;11.43;100.00;96561.97;5027523;28;20466;-80
2023/10/31 03:48:07;;;;;;;3.53;1.10;;;10.70;99.90;;;11.45;100.00;96575.59;5029409;28;20477;-80
2023/10/31 03:50:38;;;;;;;7.77;1.00;;;10.70;99.90;;;11.41;100.00;96569.25;5027667;28;21698;-80
2023/10/31 03:53:09;;;;;;;2.30;0.90;;;10.60;99.90;;;11.40;100.00;96578.13;5029388;28;20494;-80
2023/10/31 03:55:39;;;;;;;1.10;0.97;;;10.70;99.90;;;11.30;100.00;96588.38;5025799;28;20995;-80
2023/10/31 03:58:10;;;;;;;1.30;1.00;;;10.80;99.90;;;11.25;100.00;96575.16;5028174;28;20465;-80
2023/10/31 04:00:41;;;;;;;1.53;0.80;;;10.80;99.90;;;11.23;100.00;96587.69;5029224;28;20468;-81
2023/10/31 04:03:10;;;;;;;4.40;0.90;;;10.70;99.90;;;11.26;100.00;96586.41;5028950;28;20490;-80
2023/10/31 04:05:41;;;;;;;2.50;0.93;;;10.70;99.90;;;11.25;100.00;96575.16;5026489;28;20485;-81
2023/10/31 04:08:12;;;;;;;5.40;1.00;;;10.70;99.90;;;11.25;100.00;96579.59;5028256;28;20485;-80
2023/10/31 04:10:42;;;;;;;3.17;1.10;;;10.70;99.90;;;11.16;100.00;96584.38;5029325;28;20545;-80
2023/10/31 04:13:12;;;;;;;2.17;1.07;;;10.70;99.90;;;11.09;100.00;96602.00;5025692;28;20458;-81
2023/10/31 04:15:42;;;;;;;9.43;5.70;;;10.70;99.90;;;11.05;100.00;96599.03;5025397;28;20484;-80
2023/10/31 04:18:14;;;;;;;2.87;1.20;;;10.50;99.90;;;11.07;100.00;96602.22;5026811;28;20465;-80
2023/10/31 04:20:45;;;;;;;1.10;0.90;;;10.60;99.90;;;11.05;100.00;96600.84;5027352;28;20466;-79
2023/10/31 04:23:17;;;;;;;2.43;0.80;;;10.60;99.90;;;11.04;100.00;96604.47;5029108;28;20506;-79
2023/10/31 04:25:46;;;;;;;1.93;0.90;;;10.60;99.90;;;11.05;100.00;96604.25;5027428;28;20600;-80
2023/10/31 04:28:16;;;;;;;2.13;1.30;;;10.60;99.90;;;11.07;100.00;96598.81;5027788;28;20469;-80
2023/10/31 04:30:47;;;;;;;0.97;0.87;;;10.60;99.90;;;11.00;100.00;96614.59;5025855;28;20461;-79
2023/10/31 04:33:17;;;;;;;1.83;1.00;;;10.50;99.90;;;11.01;100.00;96618.00;5023959;28;20485;-77
2023/10/31 04:35:48;;;;;;;4.30;1.80;;;10.40;99.90;;;11.07;100.00;96620.53;5025704;28;21222;-79
2023/10/31 04:38:19;;;;;;;4.53;1.00;;;10.40;99.90;;;11.05;100.00;96627.81;5022183;28;21120;-80
2023/10/31 04:40:49;;;;;;;1.33;0.80;;;10.40;99.90;;;11.09;100.00;96628.97;5027627;28;20490;-80
2023/10/31 04:43:19;;;;;;;15.07;1.17;;;10.50;99.90;;;11.06;100.00;96628.59;5027942;28;20497;-80
2023/10/31 04:45:49;;;;;;;1.10;0.90;;;10.50;99.90;;;11.11;100.00;96639.19;5026539;28;20996;-79
2023/10/31 04:48:19;;;;;;;1.00;0.90;;;10.50;99.90;;;11.06;100.00;96634.66;5027227;28;21146;-79
2023/10/31 04:50:49;;;;;;;1.77;1.23;;;10.50;99.90;;;11.05;100.00;96640.88;5027386;28;20456;-79
2023/10/31 04:53:21;;;;;;;3.47;1.10;;;10.40;99.90;;;11.04;100.00;96641.09;5030032;28;20555;-79
2023/10/31 04:55:51;;;;;;;4.10;1.40;;;10.50;99.90;;;11.08;100.00;96645.66;5026219;28;20470;-79
2023/10/31 04:58:21;;;;;;;1.23;0.90;;;10.40;99.90;;;11.05;100.00;96646.13;5026596;28;20513;-78
2023/10/31 05:00:51;;;;;;;1.00;0.90;;;10.50;99.90;;;11.05;100.00;96650.56;5026970;28;20840;-79
2023/10/31 05:03:22;;;;;;;1.33;1.00;;;10.50;99.90;;;11.03;100.00;96655.22;5026343;28;20550;-79
2023/10/31 05:05:53;;;;;;;1.73;1.10;;;10.40;99.90;;;11.05;100.00;96653.16;5028748;28;20469;-79
2023/10/31 05:08:25;;;;;;;1.93;1.00;;;10.40;99.90;;;11.04;100.00;96656.78;5026728;28;20968;-80
2023/10/31 05:10:54;;;;;;;1.23;1.13;;;10.30;99.90;;;11.08;100.00;96661.38;5030398;28;20461;-78
2023/10/31 05:13:24;;;;;;;2.23;1.10;;;10.30;99.90;;;11.09;100.00;96660.34;5028228;28;20470;-80
2023/10/31 05:15:55;;;;;;;16.23;7.07;;;10.40;99.90;;;11.05;100.00;96664.44;5030531;28;20903;-80
2023/10/31 05:18:25;;;;;;;5.33;3.30;;;10.40;99.90;;;11.11;100.00;96662.72;5030726;28;20588;-80
2023/10/31 05:20:59;;;;;;;1.60;1.30;;;10.40;99.90;;;11.10;100.00;96666.38;5034548;28;20460;-80
2023/10/31 05:23:31;;;;;;;22.97;9.77;;;10.40;99.90;;;11.11;100.00;96665.34;5032312;28;20523;-77
2023/10/31 05:26:00;;;;;;;3.37;2.43;;;10.50;99.90;;;11.14;100.00;96657.06;5028123;28;20467;-81
2023/10/31 05:28:31;;;;;;;1.97;1.17;;;10.50;99.90;;;11.13;100.00;96655.47;5026770;28;20469;-78
2023/10/31 05:31:02;;;;;;;1.40;1.10;;;10.40;99.90;;;11.11;100.00;96660.09;5028224;28;20462;-80
2023/10/31 05:33:35;;;;;;;4.37;1.37;;;10.40;99.90;;;11.15;100.00;96668.31;5028845;28;20504;-80
2023/10/31 05:36:22;;;;;;;4.03;1.00;;;10.40;99.90;;;11.16;100.00;96655.00;5028907;28;21038;-79
2023/10/31 05:38:52;;;;;;;2.60;1.00;;;10.40;99.90;;;11.17;100.00;96661.84;5032896;28;20460;-79
2023/10/31 05:41:24;;;;;;;5.90;1.20;;;10.40;99.90;;;11.19;100.00;96667.66;5030963;28;20466;-80
2023/10/31 05:44:06;;;;;;;6.93;1.90;;;10.40;99.90;;;11.19;100.00;96661.59;5032900;28;20462;-80
2023/10/31 05:46:45;;;;;;;3.87;1.83;;;10.40;99.90;;;11.20;100.00;96671.06;5032681;28;20457;-79
2023/10/31 05:49:15;;;;;;;3.93;1.40;;;10.40;99.90;;;11.18;100.00;96663.41;5033305;28;21006;-79
2023/10/31 05:51:44;;;;;;;1.30;1.10;;;10.50;99.90;;;11.13;100.00;96668.56;5032137;28;20457;-80
2023/10/31 05:54:16;;;;;;;1.90;1.10;;;10.50;99.90;;;11.07;100.00;96680.69;5033238;28;20893;-80
2023/10/31 05:56:45;;;;;;;6.20;1.33;;;10.50;99.90;;;11.09;100.00;96675.25;5032471;28;20470;-80
2023/10/31 05:59:15;;;;;;;1.53;1.30;;;10.40;99.90;;;11.07;100.00;96682.53;5034473;28;20477;-79
2023/10/31 06:01:45;;;;;;;4.40;1.30;;;10.40;99.90;;;11.03;100.00;96690.03;5030266;28;20535;-79
2023/10/31 06:04:15;;;;;;;1.40;1.10;;;10.40;99.90;;;10.97;100.00;96688.28;5032827;28;20471;-81
2023/10/31 06:06:44;;;;;;;2.13;1.30;;;10.30;99.90;;;10.99;100.00;96690.69;5032888;28;20469;-80
2023/10/31 06:09:16;;;;;;;1.87;1.10;;;10.20;99.90;;;10.98;100.00;96700.34;5032652;28;20516;-80
2023/10/31 06:11:47;;;;;;;1.40;1.10;;;10.30;99.90;;;10.99;100.00;96701.94;5031007;28;20466;-80
2023/10/31 06:14:18;;;;;;;1.10;1.00;;;10.30;99.90;;;10.98;100.00;96705.56;5032567;28;20473;-79
2023/10/31 06:16:49;;;;;;;1.73;1.20;;;10.40;99.90;;;11.00;100.00;96718.44;5030422;28;20957;-80
2023/10/31 06:19:19;;;;;;;2.57;1.17;;;10.30;99.90;;;10.98;100.00;96721.28;5033547;28;20458;-80
2023/10/31 06:21:50;;;;;;;1.20;1.00;;;10.30;99.90;;;10.97;100.00;96724.91;5032288;28;20462;-80
2023/10/31 06:24:22;;;;;;;2.77;1.70;;;10.30;99.90;;;10.97;100.00;96719.66;5032592;28;20466;-79
2023/10/31 06:26:52;;;;;;;1.53;1.27;;;10.30;99.90;;;11.01;100.00;96738.34;5031202;28;20975;-80
2023/10/31 06:29:22;;;;;;;3.90;1.37;;;10.30;99.90;;;11.04;100.00;96748.34;5030523;28;20684;-80
2023/10/31 06:31:56;;;;;;;1.80;1.30;;;10.40;99.90;;;11.03;100.00;96754.63;5031608;28;20481;-80
2023/10/31 06:34:26;;;;;;;8.43;1.30;;;10.40;99.90;;;11.02;100.00;96763.47;5030018;28;20540;-79
2023/10/31 06:36:57;;;;;;;1.53;1.00;;;10.40;99.90;;;11.01;100.00;96767.09;5031507;28;20462;-80
2023/10/31 06:39:29;;;;;;;1.20;1.00;;;10.40;99.90;;;10.95;100.00;96771.41;5030217;28;20484;-80
2023/10/31 06:42:00;;;;;;;1.60;1.10;;;10.40;99.90;;;10.95;100.00;96779.25;5031047;28;20481;-80
2023/10/31 06:44:30;;;;;;;1.53;1.20;;;10.40;99.90;;;11.02;100.00;96781.78;5028632;28;21032;-80
2023/10/31 06:47:01;;;;;;;1.87;1.00;;;10.30;99.90;;;11.02;100.00;96794.88;5027773;28;21070;-80
2023/10/31 06:49:31;;;;;;;2.90;1.10;;;10.40;99.90;;;11.03;100.00;96802.50;5030066;28;20462;-80
2023/10/31 06:52:02;;;;;;;2.07;1.20;;;10.40;99.90;;;11.04;100.00;96816.34;5030851;28;20543;-80
2023/10/31 06:54:35;;;;;;;1.40;1.20;;;10.50;99.90;;;11.06;100.00;96822.19;5030815;28;20547;-80
2023/10/31 06:57:06;;;;;;;1.97;1.23;;;10.30;99.90;;;11.03;100.00;96817.41;5028974;28;20541;-80
2023/10/31 06:59:35;;;;;;;1.50;1.10;;;10.40;99.90;;;11.03;100.00;96826.06;5028234;28;20466;-80
2023/10/31 07:02:06;;;;;;;2.80;1.20;;;10.50;99.90;;;11.03;100.00;96827.84;5030136;28;20465;-80
2023/10/31 07:04:35;;;;;;;3.00;1.60;;;10.50;99.90;;;10.98;100.00;96830.31;5031619;28;20494;-80
2023/10/31 07:07:06;;;;;;;2.40;1.63;;;10.50;99.90;;;10.94;100.00;96822.13;5031235;28;20541;-80
2023/10/31 07:09:39;;;;;;;2.00;1.43;;;10.50;99.90;;;10.92;100.00;96826.78;5031618;28;20519;-80
2023/10/31 07:12:10;;;;;;;1.90;0.90;;;10.40;99.90;;;10.92;100.00;96831.22;5031505;28;20470;-79
2023/10/31 07:14:40;;;;;;;1.40;1.10;;;10.30;99.90;;;10.93;100.00;96835.44;5030854;28;20466;-79
2023/10/31 07:17:09;;;;;;;2.03;1.10;;;10.40;99.90;;;10.96;100.00;96837.59;5029212;28;20592;-80
2023/10/31 07:19:39;;;;;;;1.50;1.00;;;10.40;99.90;;;11.01;100.00;96841.16;5031020;28;20534;-80
2023/10/31 07:22:08;;;;;;;2.03;1.10;;;10.40;99.90;;;10.95;100.00;96852.50;5032408;28;20461;-80
2023/10/31 07:24:40;;;;;;;1.40;1.03;;;10.30;99.90;;;10.94;100.00;96855.31;5034188;28;20465;-80
2023/10/31 07:27:10;;;;;;;5.80;1.20;;;10.40;99.90;;;11.01;100.00;96858.66;5034336;28;21079;-80
2023/10/31 07:29:41;;;;;;;1.50;1.10;;;10.40;99.90;;;11.02;100.00;96868.91;5031547;28;21480;-80
2023/10/31 07:32:11;;;;;;;1.70;1.13;;;10.40;99.90;;;11.02;100.00;96865.50;5031707;28;20470;-80
2023/10/31 07:34:43;;;;;;;1.27;1.07;;;10.40;99.90;;;11.06;100.00;96874.50;5032791;28;20466;-80
2023/10/31 07:37:14;;;;;;;1.53;1.00;;;10.50;99.90;;;11.06;100.00;96882.34;5029215;28;20462;-80
2023/10/31 07:39:45;;;;;;;3.20;1.13;;;10.40;99.90;;;11.06;100.00;96874.50;5029454;28;20994;-80
2023/10/31 07:42:17;;;;;;;1.50;1.17;;;10.60;99.90;;;11.09;100.00;96872.25;5028706;28;20484;-80
2023/10/31 07:44:46;;;;;;;5.47;1.40;;;10.50;99.90;;;11.12;100.00;96873.63;5032722;28;21064;-80
2023/10/31 07:47:16;;;;;;;3.00;1.70;;;10.60;99.90;;;11.13;100.00;96875.22;5031106;28;20541;-80
2023/10/31 07:49:48;;;;;;;1.63;1.10;;;10.60;99.90;;;11.17;100.00;96880.81;5031105;28;20491;-80
2023/10/31 07:52:18;;;;;;;2.60;1.20;;;10.50;99.90;;;11.19;100.00;96884.00;5029168;28;20810;-80
2023/10/31 07:54:50;;;;;;;1.53;1.00;;;10.60;99.90;;;11.21;100.00;96882.00;5028770;28;20488;-79
2023/10/31 07:57:21;;;;;;;5.30;1.33;;;10.50;99.90;;;11.15;100.00;96878.41;5029377;28;20545;-80
2023/10/31 07:59:51;;;;;;;1.47;0.87;;;10.50;99.90;;;11.19;100.00;96884.00;5031527;28;20500;-80
2023/10/31 08:02:21;;;;;;;3.47;1.30;;;10.60;99.90;;;11.18;100.00;96891.06;5031937;28;20466;-80
2023/10/31 08:04:52;;;;;;;1.73;1.00;;;10.50;99.90;;;11.17;100.00;96881.63;5029172;28;20989;-80
2023/10/31 08:07:23;;;;;;;2.10;1.10;;;10.50;99.90;;;11.23;100.00;96890.41;5030977;28;20497;-80
2023/10/31 08:09:54;;;;;;;1.53;1.10;;;10.60;99.90;;;11.20;100.00;96883.81;5033578;28;20453;-80
2023/10/31 08:12:25;;;;;;;1.93;1.33;;;10.60;99.90;;;11.27;100.00;96887.16;5028820;28;20468;-80
2023/10/31 08:14:55;;;;;;;3.13;0.93;;;10.60;99.90;;;11.30;100.00;96899.78;5032738;28;20463;-80
2023/10/31 08:17:26;;;;;;;1.67;1.20;;;10.60;99.90;;;11.25;100.00;96890.97;5027719;28;20880;-80
2023/10/31 08:19:56;;;;;;;2.70;1.37;;;10.70;99.90;;;11.26;100.00;96896.00;5029701;28;21172;-80
2023/10/31 08:22:27;;;;;;;3.60;1.40;;;10.80;99.90;;;11.26;100.00;96905.66;5033735;28;20466;-80
2023/10/31 08:24:57;;;;;;;1.87;1.30;;;10.70;99.90;;;11.19;100.00;96900.50;5029867;28;20479;-80
2023/10/31 08:27:28;;;;;;;4.13;1.30;;;10.60;99.90;;;11.25;100.00;96904.88;5027594;28;20453;-80
2023/10/31 08:29:58;;;;;;;4.13;1.60;;;10.70;99.90;;;11.28;100.00;96914.13;5031620;28;20497;-80
2023/10/31 08:32:28;;;;;;;2.80;1.47;;;10.80;99.90;;;11.26;100.00;96911.69;5030463;28;20483;-80
2023/10/31 08:35:01;;;;;;;3.13;1.50;;;10.70;99.90;;;11.30;100.00;96915.50;5029117;28;20527;-80
2023/10/31 08:37:31;;;;;;;1.77;1.10;;;10.70;99.90;;;11.37;100.00;96918.03;5026925;28;20538;-80
2023/10/31 08:40:03;;;;;;;1.57;1.00;;;10.80;99.90;;;11.34;100.00;96923.69;5028536;28;20568;-80
2023/10/31 08:42:34;;;;;;;3.00;2.27;;;10.80;99.90;;;11.36;100.00;96917.22;5028342;28;20550;-80
2023/10/31 08:45:06;;;;;;;1.93;1.33;;;10.80;99.90;;;11.36;100.00;96927.69;5029200;28;20468;-80
2023/10/31 08:47:36;;;;;;;2.40;1.50;;;10.80;99.90;;;11.37;100.00;96924.06;5026042;28;20986;-80
2023/10/31 08:50:08;;;;;;;2.70;1.20;;;10.80;99.90;;;11.38;100.00;96925.66;5028298;28;20476;-80
2023/10/31 08:52:38;;;;;;;2.57;1.50;;;10.80;99.90;;;11.43;100.00;96932.84;5028769;28;20560;-80
2023/10/31 08:55:09;;;;;;;2.60;1.10;;;10.80;99.90;;;11.36;100.00;96922.47;5029503;28;20465;-80
2023/10/31 08:57:40;;;;;;;10.17;1.33;;;10.70;99.90;;;11.36;100.00;96939.97;5027905;28;20458;-80
2023/10/31 09:00:13;;;;;;;3.17;1.30;;;10.80;99.90;;;11.28;100.00;96937.66;5030091;28;20848;-80
2023/10/31 09:02:43;;;;;;;4.40;1.80;;;10.70;99.90;;;11.29;100.00;96945.28;5028343;28;20465;-80
2023/10/31 09:05:14;;;;;;;2.07;1.13;;;10.80;99.90;;;11.29;100.00;96953.13;5031505;28;20493;-80
2023/10/31 09:07:44;;;;;;;3.40;1.40;;;10.80;99.90;;;11.33;100.00;96956.13;5028842;28;20486;-80
2023/10/31 09:10:15;;;;;;;7.40;1.57;;;10.80;99.90;;;11.41;100.00;96961.88;5031788;28;20465;-80
2023/10/31 09:12:44;;;;;;;2.90;1.40;;;10.80;99.90;;;11.45;100.00;96957.78;5028113;28;20964;-80
2023/10/31 09:15:15;;;;;;;6.37;1.60;;;10.90;99.90;;;11.52;100.00;96957.72;5030354;28;20462;-80
2023/10/31 09:17:44;;;;;;;1.53;1.20;;;10.90;99.90;;;11.55;100.00;96965.94;5028011;28;20889;-80
2023/10/31 09:20:15;;;;;;;3.83;1.50;;;11.00;99.90;;;11.53;100.00;96957.50;5031615;28;20512;-79
2023/10/31 09:22:45;;;;;;;1.67;1.00;;;11.10;99.90;;;11.61;100.00;96962.44;5031660;28;20948;-80
2023/10/31 09:25:18;;;;;;;4.10;1.20;;;11.10;99.90;;;11.58;100.00;96957.63;5030136;28;20510;-80
2023/10/31 09:27:48;;;;;;;2.17;1.57;;;11.00;99.90;;;11.62;100.00;96960.63;5030870;28;20544;-80
2023/10/31 09:30:19;;;;;;;2.97;1.20;;;11.10;99.90;;;11.56;100.00;96954.44;5029316;28;20561;-80
2023/10/31 09:32:48;;;;;;;2.73;1.30;;;11.10;99.90;;;11.49;100.00;96958.13;5028228;28;20470;-80
2023/10/31 09:35:18;;;;;;;3.17;1.20;;;10.90;99.90;;;11.54;100.00;96966.94;5026926;28;20589;-80
2023/10/31 09:37:49;;;;;;;4.73;1.30;;;11.00;99.90;;;11.57;100.00;96958.66;5027767;28;20512;-80
2023/10/31 09:40:20;;;;;;;7.20;1.60;;;11.00;99.90;;;11.62;100.00;96963.25;5029126;28;20576;-80
2023/10/31 09:42:50;;;;;;;3.73;1.33;;;11.00;99.90;;;11.61;100.00;96969.47;5027072;28;20470;-80
2023/10/31 09:45:20;;;;;;;6.47;1.23;;;11.00;99.90;;;11.55;100.00;96963.31;5028707;28;20575;-80
2023/10/31 09:47:50;;;;;;;3.70;1.53;;;11.10;99.90;;;11.58;100.00;96962.06;5026504;28;21029;-80
2023/10/31 09:50:21;;;;;;;5.70;1.40;;;11.10;99.90;;;11.54;100.00;96976.63;5028348;28;20461;-80
2023/10/31 09:52:52;;;;;;;4.23;1.10;;;11.10;99.90;;;11.45;100.00;96978.72;5030612;28;20494;-80
2023/10/31 09:55:23;;;;;;;2.37;1.40;;;11.00;99.90;;;11.44;100.00;96974.53;5031722;28;20462;-80
2023/10/31 09:57:54;;;;;;;4.73;1.43;;;10.90;99.90;;;11.41;100.00;96977.56;5030724;28;20469;-80
2023/10/31 10:00:23;;;;;;;4.50;1.63;;;10.80;99.90;;;11.44;100.00;96977.13;5031371;28;20512;-80
2023/10/31 10:02:52;;;;;;;2.50;1.47;;;10.90;99.90;;;11.43;100.00;96970.28;5032114;28;20457;-80
2023/10/31 10:05:26;;;;;;;5.23;1.20;;;10.90;99.90;;;11.43;100.00;96980.75;5033239;28;20485;-80
2023/10/31 10:07:58;;;;;;;4.63;1.27;;;10.90;99.90;;;11.45;100.00;96976.09;5032499;28;20581;-80
2023/10/31 10:10:29;;;;;;;8.63;1.30;;;11.00;99.90;;;11.49;100.00;96974.66;5032271;28;20474;-80
2023/10/31 10:13:02;;;;;;;3.23;1.20;;;11.00;99.90;;;11.51;100.00;96983.09;5032541;28;20944;-80
2023/10/31 10:15:44;;;;;;;3.90;1.20;;;10.90;99.90;;;11.62;100.00;96981.56;5033789;28;20539;-80
2023/10/31 10:18:27;;;;;;;2.97;1.10;;;11.00;99.90;;;11.68;100.00;96982.50;5031098;28;20493;-80
2023/10/31 10:20:59;;;;;;;3.43;1.00;;;11.10;99.90;;;11.74;100.00;96986.88;5032782;28;20481;-80
2023/10/31 10:23:30;;;;;;;3.47;1.43;;;11.20;99.90;;;11.81;100.00;96987.59;5032759;28;20457;-80
2023/10/31 10:26:04;;;;;;;9.27;1.57;;;11.20;99.90;;;11.85;100.00;96983.53;5032545;28;20489;-80
2023/10/31 10:28:34;;;;;;;9.10;1.30;;;11.30;99.90;;;11.88;100.00;96988.31;5032271;28;20991;-80